sensor_id;sensor_type;location;lat;lon;timestamp;P1;durP1;ratioP1;P2;durP2;ratioP2
3052;SDS011;1536;51.098;6.414;2023-05-19T00:01:13;7.37;;;3.60;;
3052;SDS011;1536;51.098;6.414;2023-05-19T00:03:49;6.80;;;3.90;;
3052;SDS011;1536;51.098;6.414;2023-05-19T00:06:19;7.03;;;3.97;;
3052;SDS011;1536;51.098;6.414;2023-05-19T00:08:48;5.10;;;3.90;;
3052;SDS011;1536;51.098;6.414;2023-05-19T00:11:20;10.43;;;3.93;;
3052;SDS011;1536;51.098;6.414;2023-05-19T00:13:47;11.13;;;3.97;;
3052;SDS011;1536;51.098;6.414;2023-05-19T00:16:15;7.77;;;4.10;;
3052;SDS011;1536;51.098;6.414;2023-05-19T00:18:42;9.13;;;4.67;;
3052;SDS011;1536;51.098;6.414;2023-05-19T00:21:10;7.37;;;5.00;;
3052;SDS011;1536;51.098;6.414;2023-05-19T00:23:36;8.30;;;4.73;;
3052;SDS011;1536;51.098;6.414;2023-05-19T00:26:03;8.97;;;4.40;;
3052;SDS011;1536;51.098;6.414;2023-05-19T00:28:30;6.73;;;3.80;;
3052;SDS011;1536;51.098;6.414;2023-05-19T00:30:57;8.50;;;4.00;;
3052;SDS011;1536;51.098;6.414;2023-05-19T00:33:25;8.00;;;4.70;;
3052;SDS011;1536;51.098;6.414;2023-05-19T00:35:51;7.30;;;4.00;;
3052;SDS011;1536;51.098;6.414;2023-05-19T00:38:19;7.77;;;3.67;;
3052;SDS011;1536;51.098;6.414;2023-05-19T00:40:46;10.30;;;4.63;;
3052;SDS011;1536;51.098;6.414;2023-05-19T00:43:13;6.03;;;3.83;;
3052;SDS011;1536;51.098;6.414;2023-05-19T00:45:40;6.70;;;3.70;;
3052;SDS011;1536;51.098;6.414;2023-05-19T00:48:06;9.00;;;4.20;;
3052;SDS011;1536;51.098;6.414;2023-05-19T00:50:33;6.20;;;3.77;;
3052;SDS011;1536;51.098;6.414;2023-05-19T00:53:00;4.90;;;4.10;;
3052;SDS011;1536;51.098;6.414;2023-05-19T00:55:29;5.20;;;4.03;;
3052;SDS011;1536;51.098;6.414;2023-05-19T00:57:56;6.30;;;3.70;;
3052;SDS011;1536;51.098;6.414;2023-05-19T01:00:23;5.10;;;4.00;;
3052;SDS011;1536;51.098;6.414;2023-05-19T01:02:50;11.53;;;4.40;;
3052;SDS011;1536;51.098;6.414;2023-05-19T01:05:18;8.73;;;4.17;;
3052;SDS011;1536;51.098;6.414;2023-05-19T01:07:44;7.20;;;4.20;;
3052;SDS011;1536;51.098;6.414;2023-05-19T01:10:15;5.87;;;3.87;;
3052;SDS011;1536;51.098;6.414;2023-05-19T01:12:44;6.73;;;4.30;;
3052;SDS011;1536;51.098;6.414;2023-05-19T01:15:11;6.93;;;4.10;;
3052;SDS011;1536;51.098;6.414;2023-05-19T01:17:40;5.03;;;3.80;;
3052;SDS011;1536;51.098;6.414;2023-05-19T01:20:14;6.27;;;4.03;;
3052;SDS011;1536;51.098;6.414;2023-05-19T01:22:54;3.73;;;3.43;;
3052;SDS011;1536;51.098;6.414;2023-05-19T01:25:44;7.20;;;4.40;;
3052;SDS011;1536;51.098;6.414;2023-05-19T01:28:40;6.50;;;4.10;;
3052;SDS011;1536;51.098;6.414;2023-05-19T01:31:30;5.70;;;4.77;;
3052;SDS011;1536;51.098;6.414;2023-05-19T01:33:58;6.33;;;4.33;;
3052;SDS011;1536;51.098;6.414;2023-05-19T01:36:26;4.90;;;4.17;;
3052;SDS011;1536;51.098;6.414;2023-05-19T01:38:55;10.73;;;5.03;;
3052;SDS011;1536;51.098;6.414;2023-05-19T01:41:23;8.27;;;4.30;;
3052;SDS011;1536;51.098;6.414;2023-05-19T01:47:15;4.60;;;3.80;;
3052;SDS011;1536;51.098;6.414;2023-05-19T01:49:42;6.32;;;4.05;;
3052;SDS011;1536;51.098;6.414;2023-05-19T01:52:09;6.10;;;4.15;;
3052;SDS011;1536;51.098;6.414;2023-05-19T01:54:36;7.78;;;4.88;;
3052;SDS011;1536;51.098;6.414;2023-05-19T01:57:05;4.40;;;4.00;;
3052;SDS011;1536;51.098;6.414;2023-05-19T01:59:37;12.23;;;4.20;;
3052;SDS011;1536;51.098;6.414;2023-05-19T02:02:12;10.30;;;4.80;;
3052;SDS011;1536;51.098;6.414;2023-05-19T02:04:53;6.75;;;4.18;;
3052;SDS011;1536;51.098;6.414;2023-05-19T02:07:25;13.65;;;5.38;;
3052;SDS011;1536;51.098;6.414;2023-05-19T02:09:58;11.43;;;5.30;;
3052;SDS011;1536;51.098;6.414;2023-05-19T02:12:31;5.25;;;4.15;;
3052;SDS011;1536;51.098;6.414;2023-05-19T02:15:02;11.15;;;4.95;;
3052;SDS011;1536;51.098;6.414;2023-05-19T02:17:33;5.95;;;4.35;;
3052;SDS011;1536;51.098;6.414;2023-05-19T02:20:05;10.05;;;5.93;;
3052;SDS011;1536;51.098;6.414;2023-05-19T02:22:33;6.18;;;4.53;;
3052;SDS011;1536;51.098;6.414;2023-05-19T02:25:00;9.40;;;4.80;;
3052;SDS011;1536;51.098;6.414;2023-05-19T02:27:27;9.13;;;5.10;;
3052;SDS011;1536;51.098;6.414;2023-05-19T02:29:55;9.60;;;6.80;;
3052;SDS011;1536;51.098;6.414;2023-05-19T02:32:21;8.05;;;5.50;;
3052;SDS011;1536;51.098;6.414;2023-05-19T02:34:50;5.63;;;4.50;;
3052;SDS011;1536;51.098;6.414;2023-05-19T02:37:17;9.10;;;5.00;;
3052;SDS011;1536;51.098;6.414;2023-05-19T02:39:47;8.25;;;4.75;;
3052;SDS011;1536;51.098;6.414;2023-05-19T02:42:14;5.60;;;4.13;;
3052;SDS011;1536;51.098;6.414;2023-05-19T02:44:43;6.63;;;4.60;;
3052;SDS011;1536;51.098;6.414;2023-05-19T02:47:10;5.68;;;4.25;;
3052;SDS011;1536;51.098;6.414;2023-05-19T02:49:37;10.68;;;5.13;;
3052;SDS011;1536;51.098;6.414;2023-05-19T02:52:05;6.15;;;4.90;;
3052;SDS011;1536;51.098;6.414;2023-05-19T02:54:32;9.27;;;5.20;;
3052;SDS011;1536;51.098;6.414;2023-05-19T02:56:59;13.23;;;5.45;;
3052;SDS011;1536;51.098;6.414;2023-05-19T02:59:27;10.05;;;4.75;;
3052;SDS011;1536;51.098;6.414;2023-05-19T03:01:54;6.55;;;4.75;;
3052;SDS011;1536;51.098;6.414;2023-05-19T03:04:21;8.50;;;4.57;;
3052;SDS011;1536;51.098;6.414;2023-05-19T03:06:54;6.15;;;4.78;;
3052;SDS011;1536;51.098;6.414;2023-05-19T03:09:22;7.20;;;4.60;;
3052;SDS011;1536;51.098;6.414;2023-05-19T03:11:49;7.07;;;4.45;;
3052;SDS011;1536;51.098;6.414;2023-05-19T03:14:16;12.93;;;5.30;;
3052;SDS011;1536;51.098;6.414;2023-05-19T03:16:47;9.00;;;5.68;;
3052;SDS011;1536;51.098;6.414;2023-05-19T03:19:14;7.35;;;4.43;;
3052;SDS011;1536;51.098;6.414;2023-05-19T03:21:42;9.50;;;5.72;;
3052;SDS011;1536;51.098;6.414;2023-05-19T03:24:08;8.50;;;5.40;;
3052;SDS011;1536;51.098;6.414;2023-05-19T03:26:36;7.70;;;4.90;;
3052;SDS011;1536;51.098;6.414;2023-05-19T03:29:03;7.45;;;5.03;;
3052;SDS011;1536;51.098;6.414;2023-05-19T03:31:30;15.20;;;5.10;;
3052;SDS011;1536;51.098;6.414;2023-05-19T03:33:57;5.75;;;4.50;;
3052;SDS011;1536;51.098;6.414;2023-05-19T03:36:23;6.50;;;5.13;;
3052;SDS011;1536;51.098;6.414;2023-05-19T03:38:55;10.95;;;5.40;;
3052;SDS011;1536;51.098;6.414;2023-05-19T03:41:22;6.07;;;5.07;;
3052;SDS011;1536;51.098;6.414;2023-05-19T03:43:50;7.15;;;5.00;;
3052;SDS011;1536;51.098;6.414;2023-05-19T03:46:17;6.05;;;4.80;;
3052;SDS011;1536;51.098;6.414;2023-05-19T03:48:44;13.60;;;5.60;;
3052;SDS011;1536;51.098;6.414;2023-05-19T03:51:10;8.70;;;5.15;;
3052;SDS011;1536;51.098;6.414;2023-05-19T03:53:37;8.30;;;5.28;;
3052;SDS011;1536;51.098;6.414;2023-05-19T03:56:05;6.20;;;5.57;;
3052;SDS011;1536;51.098;6.414;2023-05-19T03:58:32;9.23;;;5.72;;
3052;SDS011;1536;51.098;6.414;2023-05-19T04:01:02;7.68;;;5.25;;
3052;SDS011;1536;51.098;6.414;2023-05-19T04:03:29;6.25;;;5.65;;
3052;SDS011;1536;51.098;6.414;2023-05-19T04:05:55;14.07;;;5.75;;
3052;SDS011;1536;51.098;6.414;2023-05-19T04:08:22;12.85;;;6.22;;
3052;SDS011;1536;51.098;6.414;2023-05-19T04:10:49;12.02;;;5.60;;
3052;SDS011;1536;51.098;6.414;2023-05-19T04:13:16;8.90;;;6.28;;
3052;SDS011;1536;51.098;6.414;2023-05-19T04:15:43;8.98;;;5.82;;
3052;SDS011;1536;51.098;6.414;2023-05-19T04:18:13;9.05;;;6.25;;
3052;SDS011;1536;51.098;6.414;2023-05-19T04:20:40;12.88;;;6.20;;
3052;SDS011;1536;51.098;6.414;2023-05-19T04:23:06;12.65;;;7.03;;
3052;SDS011;1536;51.098;6.414;2023-05-19T04:25:33;7.18;;;6.20;;
3052;SDS011;1536;51.098;6.414;2023-05-19T04:28:01;9.18;;;6.55;;
3052;SDS011;1536;51.098;6.414;2023-05-19T04:30:29;9.93;;;7.28;;
3052;SDS011;1536;51.098;6.414;2023-05-19T04:32:56;9.45;;;6.60;;
3052;SDS011;1536;51.098;6.414;2023-05-19T04:35:26;11.90;;;6.88;;
3052;SDS011;1536;51.098;6.414;2023-05-19T04:37:53;10.05;;;7.15;;
3052;SDS011;1536;51.098;6.414;2023-05-19T04:40:19;18.27;;;7.10;;
3052;SDS011;1536;51.098;6.414;2023-05-19T04:42:47;13.55;;;6.78;;
3052;SDS011;1536;51.098;6.414;2023-05-19T04:45:16;18.13;;;7.73;;
3052;SDS011;1536;51.098;6.414;2023-05-19T04:47:43;15.25;;;6.22;;
3052;SDS011;1536;51.098;6.414;2023-05-19T04:50:10;8.23;;;6.80;;
3052;SDS011;1536;51.098;6.414;2023-05-19T04:52:39;9.18;;;6.70;;
3052;SDS011;1536;51.098;6.414;2023-05-19T04:55:06;7.80;;;5.90;;
3052;SDS011;1536;51.098;6.414;2023-05-19T04:57:35;11.63;;;6.37;;
3052;SDS011;1536;51.098;6.414;2023-05-19T05:00:03;12.65;;;6.32;;
3052;SDS011;1536;51.098;6.414;2023-05-19T05:02:32;11.03;;;6.70;;
3052;SDS011;1536;51.098;6.414;2023-05-19T05:04:59;9.00;;;6.43;;
3052;SDS011;1536;51.098;6.414;2023-05-19T05:07:26;12.30;;;6.30;;
3052;SDS011;1536;51.098;6.414;2023-05-19T05:10:07;8.52;;;6.03;;
3052;SDS011;1536;51.098;6.414;2023-05-19T05:12:35;9.87;;;6.57;;
3052;SDS011;1536;51.098;6.414;2023-05-19T05:15:03;13.25;;;6.93;;
3052;SDS011;1536;51.098;6.414;2023-05-19T05:17:31;8.38;;;7.07;;
3052;SDS011;1536;51.098;6.414;2023-05-19T05:19:59;15.30;;;6.80;;
3052;SDS011;1536;51.098;6.414;2023-05-19T05:22:26;10.50;;;6.80;;
3052;SDS011;1536;51.098;6.414;2023-05-19T05:24:54;8.73;;;6.07;;
3052;SDS011;1536;51.098;6.414;2023-05-19T05:27:22;10.13;;;6.27;;
3052;SDS011;1536;51.098;6.414;2023-05-19T05:29:49;11.80;;;6.97;;
3052;SDS011;1536;51.098;6.414;2023-05-19T05:32:15;12.00;;;7.10;;
3052;SDS011;1536;51.098;6.414;2023-05-19T05:34:42;17.73;;;6.73;;
3052;SDS011;1536;51.098;6.414;2023-05-19T05:37:09;15.43;;;6.83;;
3052;SDS011;1536;51.098;6.414;2023-05-19T05:39:36;10.83;;;6.80;;
3052;SDS011;1536;51.098;6.414;2023-05-19T05:42:03;8.00;;;5.47;;
3052;SDS011;1536;51.098;6.414;2023-05-19T05:47:00;8.77;;;5.97;;
3052;SDS011;1536;51.098;6.414;2023-05-19T05:49:27;11.07;;;5.43;;
3052;SDS011;1536;51.098;6.414;2023-05-19T05:51:55;11.33;;;5.97;;
3052;SDS011;1536;51.098;6.414;2023-05-19T05:54:25;8.20;;;5.40;;
3052;SDS011;1536;51.098;6.414;2023-05-19T05:56:52;8.37;;;5.63;;
3052;SDS011;1536;51.098;6.414;2023-05-19T05:59:19;10.53;;;5.43;;
3052;SDS011;1536;51.098;6.414;2023-05-19T06:01:48;7.37;;;5.53;;
3052;SDS011;1536;51.098;6.414;2023-05-19T06:04:14;10.53;;;5.70;;
3052;SDS011;1536;51.098;6.414;2023-05-19T06:06:41;9.37;;;5.53;;
3052;SDS011;1536;51.098;6.414;2023-05-19T06:09:08;7.40;;;5.73;;
3052;SDS011;1536;51.098;6.414;2023-05-19T06:11:34;12.30;;;5.53;;
3052;SDS011;1536;51.098;6.414;2023-05-19T06:14:01;9.40;;;7.50;;
3052;SDS011;1536;51.098;6.414;2023-05-19T06:16:28;10.97;;;5.60;;
3052;SDS011;1536;51.098;6.414;2023-05-19T06:18:56;9.40;;;6.00;;
3052;SDS011;1536;51.098;6.414;2023-05-19T06:21:23;11.80;;;5.17;;
3052;SDS011;1536;51.098;6.414;2023-05-19T06:23:50;6.20;;;4.97;;
3052;SDS011;1536;51.098;6.414;2023-05-19T06:26:17;11.07;;;5.23;;
3052;SDS011;1536;51.098;6.414;2023-05-19T06:28:44;6.30;;;4.70;;
3052;SDS011;1536;51.098;6.414;2023-05-19T06:31:10;14.03;;;5.30;;
3052;SDS011;1536;51.098;6.414;2023-05-19T06:33:37;7.33;;;4.90;;
3052;SDS011;1536;51.098;6.414;2023-05-19T06:36:05;11.47;;;5.00;;
3052;SDS011;1536;51.098;6.414;2023-05-19T06:38:34;15.20;;;5.97;;
3052;SDS011;1536;51.098;6.414;2023-05-19T06:41:00;7.53;;;5.00;;
3052;SDS011;1536;51.098;6.414;2023-05-19T06:43:27;8.37;;;5.13;;
3052;SDS011;1536;51.098;6.414;2023-05-19T06:45:54;14.80;;;5.87;;
3052;SDS011;1536;51.098;6.414;2023-05-19T06:48:21;11.13;;;5.67;;
3052;SDS011;1536;51.098;6.414;2023-05-19T06:50:47;12.83;;;5.40;;
3052;SDS011;1536;51.098;6.414;2023-05-19T06:53:17;12.77;;;5.00;;
3052;SDS011;1536;51.098;6.414;2023-05-19T06:55:45;14.43;;;5.80;;
3052;SDS011;1536;51.098;6.414;2023-05-19T06:58:14;15.97;;;4.87;;
3052;SDS011;1536;51.098;6.414;2023-05-19T07:00:41;9.80;;;4.97;;
3052;SDS011;1536;51.098;6.414;2023-05-19T07:03:08;10.40;;;4.30;;
3052;SDS011;1536;51.098;6.414;2023-05-19T07:05:34;15.73;;;5.47;;
3052;SDS011;1536;51.098;6.414;2023-05-19T07:08:01;14.03;;;5.33;;
3052;SDS011;1536;51.098;6.414;2023-05-19T07:10:30;14.20;;;4.23;;
3052;SDS011;1536;51.098;6.414;2023-05-19T07:12:57;10.90;;;4.87;;
3052;SDS011;1536;51.098;6.414;2023-05-19T07:15:23;13.20;;;4.50;;
3052;SDS011;1536;51.098;6.414;2023-05-19T07:17:50;15.73;;;10.80;;
3052;SDS011;1536;51.098;6.414;2023-05-19T07:20:17;13.50;;;9.13;;
3052;SDS011;1536;51.098;6.414;2023-05-19T07:22:43;11.53;;;7.07;;
3052;SDS011;1536;51.098;6.414;2023-05-19T07:25:10;11.90;;;4.57;;
3052;SDS011;1536;51.098;6.414;2023-05-19T07:27:38;18.07;;;5.27;;
3052;SDS011;1536;51.098;6.414;2023-05-19T07:30:05;26.30;;;5.77;;
3052;SDS011;1536;51.098;6.414;2023-05-19T07:32:33;11.70;;;4.97;;
3052;SDS011;1536;51.098;6.414;2023-05-19T07:35:00;17.87;;;4.43;;
3052;SDS011;1536;51.098;6.414;2023-05-19T07:37:26;20.77;;;5.20;;
3052;SDS011;1536;51.098;6.414;2023-05-19T07:39:53;13.67;;;4.77;;
3052;SDS011;1536;51.098;6.414;2023-05-19T07:42:20;17.50;;;4.67;;
3052;SDS011;1536;51.098;6.414;2023-05-19T07:44:48;19.07;;;6.00;;
3052;SDS011;1536;51.098;6.414;2023-05-19T07:47:15;10.60;;;3.90;;
3052;SDS011;1536;51.098;6.414;2023-05-19T07:49:41;12.10;;;4.43;;
3052;SDS011;1536;51.098;6.414;2023-05-19T07:52:08;18.37;;;5.70;;
3052;SDS011;1536;51.098;6.414;2023-05-19T07:54:35;16.23;;;4.47;;
3052;SDS011;1536;51.098;6.414;2023-05-19T07:57:02;22.60;;;5.20;;
3052;SDS011;1536;51.098;6.414;2023-05-19T07:59:29;21.40;;;5.57;;
3052;SDS011;1536;51.098;6.414;2023-05-19T08:01:57;14.83;;;4.20;;
3052;SDS011;1536;51.098;6.414;2023-05-19T08:04:23;13.20;;;3.47;;
3052;SDS011;1536;51.098;6.414;2023-05-19T08:06:50;12.67;;;3.63;;
3052;SDS011;1536;51.098;6.414;2023-05-19T08:09:17;10.30;;;3.47;;
3052;SDS011;1536;51.098;6.414;2023-05-19T08:11:44;9.73;;;3.90;;
3052;SDS011;1536;51.098;6.414;2023-05-19T08:14:11;7.93;;;3.50;;
3052;SDS011;1536;51.098;6.414;2023-05-19T08:16:37;8.40;;;3.70;;
3052;SDS011;1536;51.098;6.414;2023-05-19T08:19:07;5.83;;;3.20;;
3052;SDS011;1536;51.098;6.414;2023-05-19T08:21:34;7.57;;;2.50;;
3052;SDS011;1536;51.098;6.414;2023-05-19T08:24:01;11.03;;;3.20;;
3052;SDS011;1536;51.098;6.414;2023-05-19T08:26:28;24.93;;;3.60;;
3052;SDS011;1536;51.098;6.414;2023-05-19T08:28:55;7.63;;;3.20;;
3052;SDS011;1536;51.098;6.414;2023-05-19T08:31:21;7.47;;;2.97;;
3052;SDS011;1536;51.098;6.414;2023-05-19T08:33:48;9.23;;;2.73;;
3052;SDS011;1536;51.098;6.414;2023-05-19T08:36:17;6.33;;;2.80;;
3052;SDS011;1536;51.098;6.414;2023-05-19T08:38:43;12.97;;;2.60;;
3052;SDS011;1536;51.098;6.414;2023-05-19T08:41:10;12.47;;;3.07;;
3052;SDS011;1536;51.098;6.414;2023-05-19T08:43:37;9.00;;;2.87;;
3052;SDS011;1536;51.098;6.414;2023-05-19T08:46:04;11.00;;;3.03;;
3052;SDS011;1536;51.098;6.414;2023-05-19T08:48:32;9.33;;;2.90;;
3052;SDS011;1536;51.098;6.414;2023-05-19T08:51:04;34.80;;;5.87;;
3052;SDS011;1536;51.098;6.414;2023-05-19T08:53:39;28.17;;;3.80;;
3052;SDS011;1536;51.098;6.414;2023-05-19T08:56:10;21.03;;;4.37;;
3052;SDS011;1536;51.098;6.414;2023-05-19T08:58:40;19.83;;;3.93;;
3052;SDS011;1536;51.098;6.414;2023-05-19T09:01:08;9.60;;;3.33;;
3052;SDS011;1536;51.098;6.414;2023-05-19T09:03:35;30.93;;;5.00;;
3052;SDS011;1536;51.098;6.414;2023-05-19T09:06:04;7.20;;;3.17;;
3052;SDS011;1536;51.098;6.414;2023-05-19T09:08:32;13.83;;;4.20;;
3052;SDS011;1536;51.098;6.414;2023-05-19T09:11:00;57.27;;;7.13;;
3052;SDS011;1536;51.098;6.414;2023-05-19T09:13:27;20.03;;;5.03;;
3052;SDS011;1536;51.098;6.414;2023-05-19T09:15:54;11.93;;;3.23;;
3052;SDS011;1536;51.098;6.414;2023-05-19T09:18:22;5.83;;;3.03;;
3052;SDS011;1536;51.098;6.414;2023-05-19T09:20:49;13.27;;;2.80;;
3052;SDS011;1536;51.098;6.414;2023-05-19T09:23:23;25.03;;;4.90;;
3052;SDS011;1536;51.098;6.414;2023-05-19T09:25:53;5.17;;;2.43;;
3052;SDS011;1536;51.098;6.414;2023-05-19T09:28:26;10.60;;;2.83;;
3052;SDS011;1536;51.098;6.414;2023-05-19T09:30:58;41.30;;;12.47;;
3052;SDS011;1536;51.098;6.414;2023-05-19T09:33:26;36.07;;;5.70;;
3052;SDS011;1536;51.098;6.414;2023-05-19T09:35:53;29.43;;;4.40;;
3052;SDS011;1536;51.098;6.414;2023-05-19T09:38:20;12.83;;;3.47;;
3052;SDS011;1536;51.098;6.414;2023-05-19T09:40:47;10.80;;;3.70;;
3052;SDS011;1536;51.098;6.414;2023-05-19T09:43:15;11.93;;;2.30;;
3052;SDS011;1536;51.098;6.414;2023-05-19T09:45:43;8.20;;;2.77;;
3052;SDS011;1536;51.098;6.414;2023-05-19T09:48:10;8.73;;;2.60;;
3052;SDS011;1536;51.098;6.414;2023-05-19T09:50:37;11.23;;;2.97;;
3052;SDS011;1536;51.098;6.414;2023-05-19T09:53:04;4.17;;;2.17;;
3052;SDS011;1536;51.098;6.414;2023-05-19T09:55:31;6.10;;;2.00;;
3052;SDS011;1536;51.098;6.414;2023-05-19T09:57:59;7.50;;;3.00;;
3052;SDS011;1536;51.098;6.414;2023-05-19T10:00:28;7.00;;;2.37;;
3052;SDS011;1536;51.098;6.414;2023-05-19T10:02:57;5.77;;;2.70;;
3052;SDS011;1536;51.098;6.414;2023-05-19T10:05:27;7.57;;;2.90;;
3052;SDS011;1536;51.098;6.414;2023-05-19T10:07:55;7.33;;;3.10;;
3052;SDS011;1536;51.098;6.414;2023-05-19T10:10:22;12.67;;;2.47;;
3052;SDS011;1536;51.098;6.414;2023-05-19T10:12:49;23.33;;;3.90;;
3052;SDS011;1536;51.098;6.414;2023-05-19T10:15:16;13.70;;;2.90;;
3052;SDS011;1536;51.098;6.414;2023-05-19T10:17:44;14.23;;;2.50;;
3052;SDS011;1536;51.098;6.414;2023-05-19T10:20:13;12.63;;;2.20;;
3052;SDS011;1536;51.098;6.414;2023-05-19T10:22:41;13.57;;;4.63;;
3052;SDS011;1536;51.098;6.414;2023-05-19T10:25:09;15.23;;;3.50;;
3052;SDS011;1536;51.098;6.414;2023-05-19T10:27:39;4.50;;;2.37;;
3052;SDS011;1536;51.098;6.414;2023-05-19T10:30:11;6.43;;;2.40;;
3052;SDS011;1536;51.098;6.414;2023-05-19T10:32:40;13.00;;;3.20;;
3052;SDS011;1536;51.098;6.414;2023-05-19T10:35:27;9.47;;;2.67;;
3052;SDS011;1536;51.098;6.414;2023-05-19T10:38:09;7.20;;;3.10;;
3052;SDS011;1536;51.098;6.414;2023-05-19T10:40:42;9.10;;;3.70;;
3052;SDS011;1536;51.098;6.414;2023-05-19T10:43:22;7.60;;;3.97;;
3052;SDS011;1536;51.098;6.414;2023-05-19T10:45:56;9.43;;;5.00;;
3052;SDS011;1536;51.098;6.414;2023-05-19T10:48:23;15.07;;;4.30;;
3052;SDS011;1536;51.098;6.414;2023-05-19T10:50:53;9.50;;;3.50;;
3052;SDS011;1536;51.098;6.414;2023-05-19T10:53:28;5.83;;;3.60;;
3052;SDS011;1536;51.098;6.414;2023-05-19T10:55:56;7.60;;;3.50;;
3052;SDS011;1536;51.098;6.414;2023-05-19T10:58:36;7.90;;;4.00;;
3052;SDS011;1536;51.098;6.414;2023-05-19T11:01:08;16.17;;;3.97;;
3052;SDS011;1536;51.098;6.414;2023-05-19T11:03:47;11.33;;;3.60;;
3052;SDS011;1536;51.098;6.414;2023-05-19T11:06:18;7.73;;;3.07;;
3052;SDS011;1536;51.098;6.414;2023-05-19T11:08:45;7.10;;;3.40;;
3052;SDS011;1536;51.098;6.414;2023-05-19T11:11:13;6.83;;;3.30;;
3052;SDS011;1536;51.098;6.414;2023-05-19T11:13:42;9.13;;;3.63;;
3052;SDS011;1536;51.098;6.414;2023-05-19T11:16:12;9.93;;;3.43;;
3052;SDS011;1536;51.098;6.414;2023-05-19T11:18:39;35.30;;;5.20;;
3052;SDS011;1536;51.098;6.414;2023-05-19T11:21:06;15.03;;;4.50;;
3052;SDS011;1536;51.098;6.414;2023-05-19T11:23:34;30.23;;;5.20;;
3052;SDS011;1536;51.098;6.414;2023-05-19T11:26:04;16.57;;;4.43;;
3052;SDS011;1536;51.098;6.414;2023-05-19T11:28:32;42.23;;;6.40;;
3052;SDS011;1536;51.098;6.414;2023-05-19T11:31:00;9.23;;;3.93;;
3052;SDS011;1536;51.098;6.414;2023-05-19T11:33:28;42.07;;;5.20;;
3052;SDS011;1536;51.098;6.414;2023-05-19T11:35:57;8.13;;;3.83;;
3052;SDS011;1536;51.098;6.414;2023-05-19T11:38:24;5.80;;;3.77;;
3052;SDS011;1536;51.098;6.414;2023-05-19T11:40:53;6.17;;;3.40;;
3052;SDS011;1536;51.098;6.414;2023-05-19T11:43:23;13.17;;;3.93;;
3052;SDS011;1536;51.098;6.414;2023-05-19T11:45:51;6.77;;;3.07;;
3052;SDS011;1536;51.098;6.414;2023-05-19T11:48:19;5.13;;;2.97;;
3052;SDS011;1536;51.098;6.414;2023-05-19T11:50:46;7.83;;;3.37;;
3052;SDS011;1536;51.098;6.414;2023-05-19T11:53:13;6.47;;;3.00;;
3052;SDS011;1536;51.098;6.414;2023-05-19T11:55:41;6.97;;;4.13;;
3052;SDS011;1536;51.098;6.414;2023-05-19T11:58:11;6.70;;;3.33;;
3052;SDS011;1536;51.098;6.414;2023-05-19T12:00:39;6.73;;;3.70;;
3052;SDS011;1536;51.098;6.414;2023-05-19T12:03:06;7.67;;;3.20;;
3052;SDS011;1536;51.098;6.414;2023-05-19T12:05:35;7.37;;;3.50;;
3052;SDS011;1536;51.098;6.414;2023-05-19T12:08:03;6.47;;;3.30;;
3052;SDS011;1536;51.098;6.414;2023-05-19T12:10:30;6.10;;;3.07;;
3052;SDS011;1536;51.098;6.414;2023-05-19T12:12:59;4.03;;;3.00;;
3052;SDS011;1536;51.098;6.414;2023-05-19T12:15:28;4.27;;;3.23;;
3052;SDS011;1536;51.098;6.414;2023-05-19T12:17:57;4.07;;;3.67;;
3052;SDS011;1536;51.098;6.414;2023-05-19T12:20:25;7.33;;;3.37;;
3052;SDS011;1536;51.098;6.414;2023-05-19T12:22:53;8.30;;;3.40;;
3052;SDS011;1536;51.098;6.414;2023-05-19T12:25:20;4.90;;;3.00;;
3052;SDS011;1536;51.098;6.414;2023-05-19T12:27:48;7.40;;;3.30;;
3052;SDS011;1536;51.098;6.414;2023-05-19T12:30:16;5.33;;;3.03;;
3052;SDS011;1536;51.098;6.414;2023-05-19T12:32:45;9.67;;;3.33;;
3052;SDS011;1536;51.098;6.414;2023-05-19T12:35:13;8.93;;;3.27;;
3052;SDS011;1536;51.098;6.414;2023-05-19T12:37:40;5.57;;;2.77;;
3052;SDS011;1536;51.098;6.414;2023-05-19T12:40:08;5.00;;;2.90;;
3052;SDS011;1536;51.098;6.414;2023-05-19T12:42:42;8.73;;;3.87;;
3052;SDS011;1536;51.098;6.414;2023-05-19T12:45:10;7.70;;;3.33;;
3052;SDS011;1536;51.098;6.414;2023-05-19T12:47:36;4.70;;;2.80;;
3052;SDS011;1536;51.098;6.414;2023-05-19T12:50:05;5.60;;;3.37;;
3052;SDS011;1536;51.098;6.414;2023-05-19T12:52:33;5.50;;;2.80;;
3052;SDS011;1536;51.098;6.414;2023-05-19T12:55:07;10.73;;;3.30;;
3052;SDS011;1536;51.098;6.414;2023-05-19T12:57:35;5.80;;;3.33;;
3052;SDS011;1536;51.098;6.414;2023-05-19T13:00:03;7.80;;;3.30;;
3052;SDS011;1536;51.098;6.414;2023-05-19T13:02:32;11.30;;;3.47;;
3052;SDS011;1536;51.098;6.414;2023-05-19T13:05:00;6.90;;;3.97;;
3052;SDS011;1536;51.098;6.414;2023-05-19T13:07:29;7.67;;;3.43;;
3052;SDS011;1536;51.098;6.414;2023-05-19T13:09:56;4.20;;;2.50;;
3052;SDS011;1536;51.098;6.414;2023-05-19T13:12:22;7.90;;;3.60;;
3052;SDS011;1536;51.098;6.414;2023-05-19T13:14:50;11.03;;;3.00;;
3052;SDS011;1536;51.098;6.414;2023-05-19T13:17:32;10.10;;;2.93;;
3052;SDS011;1536;51.098;6.414;2023-05-19T13:19:58;6.50;;;2.90;;
3052;SDS011;1536;51.098;6.414;2023-05-19T13:22:25;9.80;;;2.77;;
3052;SDS011;1536;51.098;6.414;2023-05-19T13:24:53;5.20;;;2.87;;
3052;SDS011;1536;51.098;6.414;2023-05-19T13:27:22;7.97;;;3.13;;
3052;SDS011;1536;51.098;6.414;2023-05-19T13:29:50;4.10;;;3.30;;
3052;SDS011;1536;51.098;6.414;2023-05-19T13:32:16;15.03;;;4.10;;
3052;SDS011;1536;51.098;6.414;2023-05-19T13:34:43;2.90;;;2.70;;
3052;SDS011;1536;51.098;6.414;2023-05-19T13:37:10;5.30;;;3.20;;
3052;SDS011;1536;51.098;6.414;2023-05-19T13:39:37;5.10;;;2.83;;
3052;SDS011;1536;51.098;6.414;2023-05-19T13:42:06;5.20;;;2.90;;
3052;SDS011;1536;51.098;6.414;2023-05-19T13:44:33;5.57;;;2.83;;
3052;SDS011;1536;51.098;6.414;2023-05-19T13:47:00;5.20;;;2.70;;
3052;SDS011;1536;51.098;6.414;2023-05-19T13:49:27;5.80;;;3.20;;
3052;SDS011;1536;51.098;6.414;2023-05-19T13:51:54;8.10;;;2.70;;
3052;SDS011;1536;51.098;6.414;2023-05-19T13:54:21;3.40;;;3.10;;
3052;SDS011;1536;51.098;6.414;2023-05-19T13:56:48;5.43;;;3.30;;
3052;SDS011;1536;51.098;6.414;2023-05-19T13:59:18;8.03;;;3.23;;
3052;SDS011;1536;51.098;6.414;2023-05-19T14:01:45;8.40;;;3.23;;
3052;SDS011;1536;51.098;6.414;2023-05-19T14:04:12;4.57;;;2.97;;
3052;SDS011;1536;51.098;6.414;2023-05-19T14:06:39;7.03;;;3.13;;
3052;SDS011;1536;51.098;6.414;2023-05-19T14:09:06;6.20;;;3.20;;
3052;SDS011;1536;51.098;6.414;2023-05-19T14:11:33;4.97;;;3.00;;
3052;SDS011;1536;51.098;6.414;2023-05-19T14:14:00;10.80;;;3.87;;
3052;SDS011;1536;51.098;6.414;2023-05-19T14:16:29;9.40;;;4.80;;
3052;SDS011;1536;51.098;6.414;2023-05-19T14:18:56;4.93;;;3.77;;
3052;SDS011;1536;51.098;6.414;2023-05-19T14:21:23;8.63;;;3.67;;
3052;SDS011;1536;51.098;6.414;2023-05-19T14:23:49;4.83;;;3.57;;
3052;SDS011;1536;51.098;6.414;2023-05-19T14:26:16;18.50;;;3.90;;
3052;SDS011;1536;51.098;6.414;2023-05-19T14:28:43;7.80;;;3.57;;
3052;SDS011;1536;51.098;6.414;2023-05-19T14:31:10;5.40;;;3.00;;
3052;SDS011;1536;51.098;6.414;2023-05-19T14:33:39;3.77;;;2.90;;
3052;SDS011;1536;51.098;6.414;2023-05-19T14:36:06;14.60;;;4.20;;
3052;SDS011;1536;51.098;6.414;2023-05-19T14:38:33;5.70;;;3.07;;
3052;SDS011;1536;51.098;6.414;2023-05-19T14:41:00;7.07;;;3.10;;
3052;SDS011;1536;51.098;6.414;2023-05-19T14:43:27;7.03;;;2.70;;
3052;SDS011;1536;51.098;6.414;2023-05-19T14:45:54;4.80;;;2.63;;
3052;SDS011;1536;51.098;6.414;2023-05-19T14:48:21;6.70;;;3.67;;
3052;SDS011;1536;51.098;6.414;2023-05-19T14:50:49;5.43;;;3.03;;
3052;SDS011;1536;51.098;6.414;2023-05-19T14:53:17;9.10;;;3.23;;
3052;SDS011;1536;51.098;6.414;2023-05-19T14:55:46;5.83;;;3.03;;
3052;SDS011;1536;51.098;6.414;2023-05-19T14:58:13;6.57;;;3.53;;
3052;SDS011;1536;51.098;6.414;2023-05-19T15:00:40;4.60;;;3.17;;
3052;SDS011;1536;51.098;6.414;2023-05-19T15:03:07;10.93;;;3.80;;
3052;SDS011;1536;51.098;6.414;2023-05-19T15:05:35;7.93;;;4.13;;
3052;SDS011;1536;51.098;6.414;2023-05-19T15:08:05;9.20;;;3.13;;
3052;SDS011;1536;51.098;6.414;2023-05-19T15:10:32;22.50;;;3.40;;
3052;SDS011;1536;51.098;6.414;2023-05-19T15:12:58;15.83;;;4.30;;
3052;SDS011;1536;51.098;6.414;2023-05-19T15:15:25;12.93;;;3.20;;
3052;SDS011;1536;51.098;6.414;2023-05-19T15:17:52;8.13;;;3.30;;
3052;SDS011;1536;51.098;6.414;2023-05-19T15:20:19;4.60;;;3.20;;
3052;SDS011;1536;51.098;6.414;2023-05-19T15:22:45;8.83;;;3.63;;